DENVER INTL

KDEN (DEN)
Denver, Colorado
Towered

Vatsim Metar:
KDEN 272153Z 31005KT 5SM -SN OVC033 02/M01 A2992 RMK AO2 SLP136 VIS E-SE 2 1/2 P0000 T00221011

No ATC Online

Traffic

Inbound:
Ident
Type
Name
ETA
Phase
UAL441
A320/L
Dave Cochran
22:31 Z
Descent
DAL117
MD82/L
Gabriel Clerc
22:36 Z
Cruse
SWA180
B738/L
Nicholas Joseph KFLL
23:20 Z
Cruse

Outbound:
Ident
Type
Name
Destination
Phase

SIDs

STARS

Alternate Minimums

Hot Spots